createdAt,value
2023-04-18T00:00:10.389Z,27.10
2023-04-18T00:02:43.988Z,23.48
2023-04-18T00:05:18.268Z,28.38
2023-04-18T00:07:45.244Z,24.98
2023-04-18T00:10:12.596Z,25.90
2023-04-18T00:12:40.515Z,24.88
2023-04-18T00:15:11.537Z,23.58
2023-04-18T00:17:38.770Z,24.48
2023-04-18T00:20:12.805Z,26.05
2023-04-18T00:22:42.544Z,23.00
2023-04-18T00:25:11.071Z,21.80
2023-04-18T00:27:41.666Z,20.80
2023-04-18T00:30:09.240Z,20.92
2023-04-18T00:32:38.151Z,20.45
2023-04-18T00:35:05.607Z,22.20
2023-04-18T00:37:32.646Z,19.80
2023-04-18T00:39:59.607Z,23.65
2023-04-18T00:42:28.968Z,20.10
2023-04-18T00:44:56.034Z,21.30
2023-04-18T00:47:22.911Z,19.60
2023-04-18T00:49:50.048Z,21.13
2023-04-18T00:52:17.481Z,18.33
2023-04-18T00:54:45.153Z,21.83
2023-04-18T00:57:13.248Z,18.70
2023-04-18T00:59:40.619Z,17.52
2023-04-18T01:02:08.319Z,21.00
2023-04-18T01:04:35.398Z,17.55
2023-04-18T01:07:03.310Z,17.13
2023-04-18T01:09:30.729Z,18.38
2023-04-18T01:11:57.777Z,18.92
2023-04-18T01:14:24.726Z,16.43
2023-04-18T01:16:51.642Z,16.98
2023-04-18T01:19:19.576Z,14.68
2023-04-18T01:21:47.294Z,15.95
2023-04-18T01:24:16.238Z,15.00
2023-04-18T01:26:45.311Z,14.90
2023-04-18T01:29:12.243Z,13.87
2023-04-18T01:31:40.511Z,14.45
2023-04-18T01:34:08.541Z,15.45
2023-04-18T01:36:36.236Z,17.50
2023-04-18T01:39:03.638Z,13.32
2023-04-18T01:41:32.800Z,12.57
2023-04-18T01:44:00.133Z,12.93
2023-04-18T01:46:27.928Z,13.73
2023-04-18T01:48:55.539Z,13.52
2023-04-18T01:51:22.591Z,16.60
2023-04-18T01:53:49.683Z,14.60
2023-04-18T01:56:16.630Z,11.55
2023-04-18T01:58:43.598Z,14.00
2023-04-18T02:01:10.665Z,12.77
2023-04-18T02:03:38.811Z,13.75
2023-04-18T02:06:06.506Z,15.23
2023-04-18T02:08:35.668Z,11.40
2023-04-18T02:11:05.545Z,13.40
2023-04-18T02:13:32.564Z,15.45
2023-04-18T02:15:59.607Z,11.27
2023-04-18T02:18:28.037Z,15.65
2023-04-18T02:20:54.886Z,16.67
2023-04-18T02:23:22.580Z,16.08
2023-04-18T02:25:50.761Z,11.98
2023-04-18T02:28:17.915Z,11.05
2023-04-18T02:30:44.985Z,12.68
2023-04-18T02:33:11.857Z,11.25
2023-04-18T02:35:38.835Z,15.90
2023-04-18T02:38:05.838Z,12.63
2023-04-18T02:40:32.714Z,13.45
2023-04-18T02:42:59.803Z,12.98
2023-04-18T02:45:26.814Z,12.07
2023-04-18T02:47:56.819Z,12.38
2023-04-18T02:50:25.186Z,12.02
2023-04-18T02:52:53.908Z,14.45
2023-04-18T02:55:24.438Z,13.23
2023-04-18T02:57:52.674Z,12.82
2023-04-18T03:00:38.192Z,13.83
2023-04-18T03:03:22.223Z,12.02
2023-04-18T03:06:02.357Z,13.40
2023-04-18T03:08:31.345Z,14.38
2023-04-18T03:10:58.595Z,12.57
2023-04-18T03:13:27.717Z,13.07
2023-04-18T03:15:55.711Z,11.07
2023-04-18T03:18:22.920Z,13.07
2023-04-18T03:20:51.277Z,11.18
2023-04-18T03:23:18.175Z,15.52
2023-04-18T03:25:46.054Z,11.65
2023-04-18T03:28:13.091Z,12.82
2023-04-18T03:30:40.042Z,13.40
2023-04-18T03:33:07.869Z,13.60
2023-04-18T03:35:35.369Z,12.07
2023-04-18T03:38:02.294Z,12.48
2023-04-18T03:40:32.648Z,13.60
2023-04-18T03:43:05.821Z,12.80
2023-04-18T03:45:32.700Z,12.23
2023-04-18T03:48:00.026Z,13.90
2023-04-18T03:50:27.235Z,11.15
2023-04-18T03:52:56.048Z,14.75
2023-04-18T03:55:23.264Z,11.98
2023-04-18T03:57:50.923Z,11.90
2023-04-18T04:00:26.818Z,14.33
2023-04-18T04:03:07.074Z,13.77
2023-04-18T04:05:34.228Z,13.65
2023-04-18T04:08:01.130Z,10.63
2023-04-18T04:10:28.363Z,15.95
2023-04-18T04:12:55.332Z,14.55
2023-04-18T04:15:23.048Z,12.63
2023-04-18T04:17:55.855Z,15.43
2023-04-18T04:20:25.799Z,14.18
2023-04-18T04:23:01.227Z,14.60
2023-04-18T04:25:29.789Z,16.90
2023-04-18T04:28:02.646Z,18.93
2023-04-18T04:30:33.634Z,15.77
2023-04-18T04:33:01.892Z,14.63
2023-04-18T04:35:28.884Z,14.55
2023-04-18T04:37:55.930Z,14.23
2023-04-18T04:40:32.246Z,14.90
2023-04-18T04:43:16.417Z,16.38
2023-04-18T04:45:45.396Z,16.58
2023-04-18T04:48:12.577Z,19.38
2023-04-18T04:50:41.545Z,15.38
2023-04-18T04:53:11.879Z,15.27
2023-04-18T04:55:39.396Z,13.05
2023-04-18T04:58:07.008Z,14.63
2023-04-18T05:00:56.532Z,16.45
2023-04-18T05:03:23.564Z,15.85
2023-04-18T05:05:50.824Z,15.10
2023-04-18T05:08:17.632Z,20.23
2023-04-18T05:10:45.939Z,21.48
2023-04-18T05:13:13.034Z,16.13
2023-04-18T05:15:40.190Z,16.67
2023-04-18T05:18:07.108Z,14.25
2023-04-18T05:20:34.014Z,18.42
2023-04-18T05:23:01.173Z,15.17
2023-04-18T05:25:29.743Z,13.70
2023-04-18T05:27:56.754Z,15.90
2023-04-18T05:30:23.672Z,15.85
2023-04-18T05:32:50.551Z,17.90
2023-04-18T05:35:17.568Z,16.73
2023-04-18T05:37:44.421Z,16.25
2023-04-18T05:40:12.505Z,17.75
2023-04-18T05:42:39.395Z,14.27
2023-04-18T05:45:06.801Z,14.98
2023-04-18T05:47:33.893Z,16.33
2023-04-18T05:50:00.888Z,16.20
2023-04-18T05:52:27.954Z,16.45
2023-04-18T05:54:54.738Z,19.30
2023-04-18T05:57:21.591Z,15.23
2023-04-18T05:59:48.511Z,18.35
2023-04-18T06:02:15.532Z,16.27
2023-04-18T06:04:43.014Z,15.43
2023-04-18T06:07:10.192Z,15.20
2023-04-18T06:09:37.233Z,18.85
2023-04-18T06:12:04.420Z,14.18
2023-04-18T06:14:31.338Z,16.13
2023-04-18T06:16:58.515Z,15.82
2023-04-18T06:19:25.477Z,14.67
2023-04-18T06:21:52.816Z,14.52
2023-04-18T06:24:19.745Z,15.30
2023-04-18T06:26:47.283Z,20.52
2023-04-18T06:29:14.140Z,13.82
2023-04-18T06:31:42.089Z,15.85
2023-04-18T06:34:09.374Z,13.65
2023-04-18T06:36:36.318Z,13.80
2023-04-18T06:39:03.508Z,14.68
2023-04-18T06:41:31.103Z,15.63
2023-04-18T06:44:02.635Z,16.30
2023-04-18T06:46:31.019Z,15.32
2023-04-18T06:48:57.992Z,14.93
2023-04-18T06:51:25.022Z,15.25
2023-04-18T06:53:54.644Z,14.00
2023-04-18T06:56:21.947Z,14.05
2023-04-18T06:58:49.020Z,14.20
2023-04-18T07:01:16.105Z,13.93
2023-04-18T07:03:43.048Z,12.97
2023-04-18T07:06:11.034Z,14.02
2023-04-18T07:08:38.247Z,11.43
2023-04-18T07:11:06.443Z,14.85
2023-04-18T07:13:33.539Z,9.73
2023-04-18T07:16:01.549Z,14.23
2023-04-18T07:18:37.457Z,15.93
2023-04-18T07:21:07.729Z,11.43
2023-04-18T07:23:35.298Z,12.68
2023-04-18T07:26:03.101Z,13.02
2023-04-18T07:28:32.288Z,10.77
2023-04-18T07:30:59.861Z,13.30
2023-04-18T07:33:26.856Z,13.50
2023-04-18T07:35:53.819Z,10.55
2023-04-18T07:38:20.705Z,13.10
2023-04-18T07:40:55.995Z,12.38
2023-04-18T07:43:22.982Z,12.63
2023-04-18T07:45:49.922Z,9.77
2023-04-18T07:48:17.087Z,12.00
2023-04-18T07:50:43.958Z,10.25
2023-04-18T07:53:10.835Z,13.13
2023-04-18T07:55:37.790Z,12.13
2023-04-18T07:58:04.663Z,14.93
2023-04-18T08:00:32.799Z,8.00
2023-04-18T08:03:00.086Z,11.85
2023-04-18T08:05:27.081Z,9.25
2023-04-18T08:07:53.966Z,9.13
2023-04-18T08:10:23.266Z,8.32
2023-04-18T08:12:50.681Z,8.68
2023-04-18T08:15:17.529Z,5.80
2023-04-18T08:17:45.348Z,7.75
2023-04-18T08:20:12.999Z,9.32
2023-04-18T08:22:53.663Z,7.95
2023-04-18T08:25:26.903Z,11.15
2023-04-18T08:27:53.711Z,8.13
2023-04-18T08:30:20.650Z,5.82
2023-04-18T08:32:47.688Z,8.02
2023-04-18T08:35:14.588Z,6.35
2023-04-18T08:37:41.575Z,5.97
2023-04-18T08:40:09.031Z,6.88
2023-04-18T08:42:37.406Z,6.40
2023-04-18T08:45:05.895Z,4.13
2023-04-18T08:47:35.497Z,8.13
2023-04-18T08:50:02.536Z,7.10
2023-04-18T08:52:31.230Z,4.43
2023-04-18T08:54:58.021Z,7.05
2023-04-18T08:57:26.857Z,8.30
2023-04-18T08:59:56.502Z,7.55
2023-04-18T09:02:38.968Z,7.22
2023-04-18T09:05:11.935Z,7.10
2023-04-18T09:07:38.975Z,4.88
2023-04-18T09:10:06.170Z,5.77
2023-04-18T09:12:34.394Z,6.47
2023-04-18T09:15:15.660Z,7.35
2023-04-18T09:17:54.026Z,5.60
2023-04-18T09:20:41.529Z,4.43
2023-04-18T09:23:16.370Z,6.07
2023-04-18T09:25:48.086Z,5.57
2023-04-18T09:28:28.758Z,3.80
2023-04-18T09:30:58.022Z,6.88
2023-04-18T09:33:28.383Z,3.70
2023-04-18T09:36:19.403Z,4.35
2023-04-18T09:38:47.330Z,4.72
2023-04-18T09:41:20.743Z,4.28
2023-04-18T09:43:48.711Z,4.80
2023-04-18T09:46:17.637Z,5.53
2023-04-18T09:48:44.742Z,5.75
2023-04-18T09:51:18.025Z,5.90
2023-04-18T09:53:47.298Z,7.30
2023-04-18T09:56:26.013Z,3.08
2023-04-18T09:58:57.165Z,3.05
2023-04-18T10:01:28.521Z,5.13
2023-04-18T10:03:57.206Z,4.63
2023-04-18T10:06:27.453Z,5.05
2023-04-18T10:08:55.099Z,5.18
2023-04-18T10:11:24.189Z,4.40
2023-04-18T10:13:55.764Z,4.20
2023-04-18T10:16:23.133Z,3.90
2023-04-18T10:18:51.148Z,2.38
2023-04-18T10:21:18.034Z,3.53
2023-04-18T10:23:48.749Z,3.70
2023-04-18T10:26:16.060Z,3.30
2023-04-18T10:29:03.963Z,2.40
2023-04-18T10:31:39.347Z,4.60
2023-04-18T10:34:07.395Z,5.20
2023-04-18T10:36:34.343Z,6.47
2023-04-18T10:39:25.310Z,4.38
2023-04-18T10:41:52.384Z,3.17
2023-04-18T10:44:23.366Z,2.83
2023-04-18T10:46:53.683Z,2.45
2023-04-18T10:49:23.367Z,3.83
2023-04-18T10:51:58.564Z,4.05
2023-04-18T10:54:50.905Z,4.68
2023-04-18T10:57:17.984Z,4.10
2023-04-18T10:59:50.218Z,2.70
2023-04-18T11:02:26.432Z,3.45
2023-04-18T11:04:58.492Z,2.30
2023-04-18T11:07:46.182Z,2.93
2023-04-18T11:10:15.983Z,2.97
2023-04-18T11:12:43.001Z,3.40
2023-04-18T11:15:20.178Z,2.08
2023-04-18T11:18:03.889Z,3.60
2023-04-18T11:20:38.836Z,3.10
2023-04-18T11:23:20.981Z,3.58
2023-04-18T11:25:51.987Z,2.80
2023-04-18T11:28:24.702Z,1.88
2023-04-18T11:30:51.525Z,3.47
2023-04-18T11:33:18.573Z,2.03
2023-04-18T11:35:46.658Z,3.63
2023-04-18T11:38:15.154Z,3.60
2023-04-18T11:40:49.258Z,4.45
2023-04-18T11:43:21.482Z,5.07
2023-04-18T11:45:56.213Z,4.00
2023-04-18T11:48:23.790Z,4.28
2023-04-18T11:50:50.813Z,4.45
2023-04-18T11:53:33.404Z,5.68
2023-04-18T11:56:00.391Z,7.65
2023-04-18T11:58:34.246Z,5.70
2023-04-18T12:01:22.423Z,4.27
2023-04-18T12:04:01.946Z,5.07
2023-04-18T12:06:49.357Z,4.15
2023-04-18T12:09:17.366Z,5.78
2023-04-18T12:11:44.588Z,5.43
2023-04-18T12:14:24.043Z,9.73
2023-04-18T12:16:51.456Z,6.83
2023-04-18T12:19:20.834Z,5.35
2023-04-18T12:22:00.373Z,6.00
2023-04-18T12:24:28.975Z,6.72
2023-04-18T12:26:58.064Z,7.10
2023-04-18T12:29:25.857Z,6.82
2023-04-18T12:31:53.023Z,6.45
2023-04-18T12:34:20.455Z,5.10
2023-04-18T12:36:47.584Z,4.47
2023-04-18T12:39:14.485Z,8.07
2023-04-18T12:41:41.322Z,9.05
2023-04-18T12:44:09.432Z,8.50
2023-04-18T12:46:36.295Z,6.82
2023-04-18T12:49:03.095Z,5.28
2023-04-18T12:51:30.268Z,7.32
2023-04-18T12:53:57.116Z,7.15
2023-04-18T12:56:23.971Z,8.93
2023-04-18T12:58:51.057Z,8.57
2023-04-18T13:01:18.189Z,8.35
2023-04-18T13:03:51.101Z,7.38
2023-04-18T13:06:27.188Z,7.72
2023-04-18T13:08:54.109Z,8.50
2023-04-18T13:11:22.381Z,6.82
2023-04-18T13:13:49.245Z,8.65
2023-04-18T13:16:16.305Z,8.63
2023-04-18T13:18:43.208Z,9.10
2023-04-18T13:21:10.010Z,7.18
2023-04-18T13:23:37.022Z,9.95
2023-04-18T13:26:03.909Z,10.38
2023-04-18T13:28:30.822Z,8.93
2023-04-18T13:30:58.590Z,12.10
2023-04-18T13:33:25.688Z,8.40
2023-04-18T13:35:52.739Z,9.95
2023-04-18T13:38:19.629Z,9.98
2023-04-18T13:40:46.368Z,10.93
2023-04-18T13:43:13.780Z,12.27
2023-04-18T13:45:40.740Z,13.48
2023-04-18T13:48:07.522Z,12.43
2023-04-18T13:50:34.681Z,12.77
2023-04-18T13:53:01.538Z,9.70
2023-04-18T13:55:28.924Z,10.57
2023-04-18T13:57:55.990Z,12.65
2023-04-18T14:00:22.851Z,11.10
2023-04-18T14:02:49.790Z,10.50
2023-04-18T14:05:16.939Z,11.93
2023-04-18T14:07:43.930Z,15.25
2023-04-18T14:10:11.188Z,10.48
2023-04-18T14:12:38.227Z,8.85
2023-04-18T14:15:06.001Z,7.60
2023-04-18T14:17:32.926Z,11.52
2023-04-18T14:20:00.441Z,11.07
2023-04-18T14:22:27.346Z,9.20
2023-04-18T14:24:56.152Z,12.48
2023-04-18T14:27:23.495Z,14.48
2023-04-18T14:29:50.655Z,13.13
2023-04-18T14:32:17.681Z,13.27
2023-04-18T14:34:44.627Z,13.43
2023-04-18T14:37:11.494Z,12.23
2023-04-18T14:39:38.501Z,12.00
2023-04-18T14:42:05.699Z,10.45
2023-04-18T14:44:33.631Z,11.95
2023-04-18T14:47:01.526Z,12.32
2023-04-18T14:49:28.450Z,10.40
2023-04-18T14:51:55.203Z,13.13
2023-04-18T14:54:21.958Z,13.73
2023-04-18T14:56:48.980Z,13.80
2023-04-18T14:59:17.116Z,12.93
2023-04-18T15:01:44.085Z,11.63
2023-04-18T15:04:11.041Z,9.70
2023-04-18T15:06:37.983Z,8.30
2023-04-18T15:09:04.971Z,11.48
2023-04-18T15:11:31.953Z,9.80
2023-04-18T15:13:58.890Z,12.98
2023-04-18T15:16:25.871Z,13.73
2023-04-18T15:18:52.896Z,15.57
2023-04-18T15:21:19.723Z,11.63
2023-04-18T15:23:46.597Z,12.02
2023-04-18T15:26:13.550Z,12.27
2023-04-18T15:28:40.445Z,13.07
2023-04-18T15:31:07.655Z,13.05
2023-04-18T15:33:34.516Z,10.97
2023-04-18T15:36:01.344Z,10.57
2023-04-18T15:38:28.279Z,8.25
2023-04-18T15:40:55.136Z,8.13
2023-04-18T15:43:21.968Z,10.18
2023-04-18T15:45:49.005Z,10.63
2023-04-18T15:48:16.047Z,8.73
2023-04-18T15:50:42.887Z,6.72
2023-04-18T15:53:09.919Z,10.73
2023-04-18T15:55:36.898Z,11.15
2023-04-18T15:58:03.737Z,11.40
2023-04-18T16:00:30.620Z,8.00
2023-04-18T16:02:57.560Z,8.73
2023-04-18T16:05:24.634Z,8.93
2023-04-18T16:07:53.758Z,11.63
2023-04-18T16:10:20.802Z,6.38
2023-04-18T16:12:47.783Z,7.80
2023-04-18T16:15:14.517Z,8.70
2023-04-18T16:17:41.308Z,11.02
2023-04-18T16:20:09.027Z,11.65
2023-04-18T16:22:36.599Z,11.88
2023-04-18T16:25:04.657Z,12.27
2023-04-18T16:27:32.467Z,12.80
2023-04-18T16:29:59.318Z,10.65
2023-04-18T16:32:26.475Z,10.38
2023-04-18T16:34:53.567Z,11.05
2023-04-18T16:37:20.508Z,10.30
2023-04-18T16:39:47.380Z,10.27
2023-04-18T16:42:15.881Z,10.03
2023-04-18T16:44:44.646Z,10.97
2023-04-18T16:47:11.553Z,12.02
2023-04-18T16:49:38.870Z,9.68
2023-04-18T16:52:05.730Z,11.57
2023-04-18T16:54:32.528Z,14.80
2023-04-18T16:56:59.370Z,15.18
2023-04-18T16:59:26.155Z,13.40
2023-04-18T17:01:53.044Z,11.65
2023-04-18T17:04:20.064Z,10.35
2023-04-18T17:06:47.003Z,10.27
2023-04-18T17:09:14.817Z,15.88
2023-04-18T17:11:42.183Z,9.07
2023-04-18T17:14:09.345Z,10.40
2023-04-18T17:16:38.711Z,12.32
2023-04-18T17:19:05.757Z,11.05
2023-04-18T17:21:34.630Z,10.50
2023-04-18T17:24:03.884Z,10.63
2023-04-18T17:26:31.369Z,9.90
2023-04-18T17:28:58.489Z,9.63
2023-04-18T17:31:25.627Z,8.63
2023-04-18T17:33:53.135Z,9.27
2023-04-18T17:36:20.186Z,9.88
2023-04-18T17:38:50.157Z,9.95
2023-04-18T17:41:18.889Z,12.90
2023-04-18T17:43:46.665Z,10.30
2023-04-18T17:46:14.409Z,8.23
2023-04-18T17:48:41.507Z,9.93
2023-04-18T17:51:08.435Z,10.10
2023-04-18T17:53:35.447Z,7.63
2023-04-18T17:56:03.545Z,8.90
2023-04-18T17:58:30.521Z,8.18
2023-04-18T18:00:57.529Z,9.55
2023-04-18T18:03:24.703Z,10.65
2023-04-18T18:05:51.909Z,10.07
2023-04-18T18:08:18.971Z,8.23
2023-04-18T18:10:47.116Z,9.00
2023-04-18T18:13:13.988Z,9.52
2023-04-18T18:15:40.823Z,9.52
2023-04-18T18:18:07.920Z,9.57
2023-04-18T18:20:34.768Z,8.27
2023-04-18T18:23:02.722Z,9.07
2023-04-18T18:25:29.738Z,9.32
2023-04-18T18:27:56.571Z,10.13
2023-04-18T18:30:23.512Z,12.38
2023-04-18T18:32:50.635Z,10.25
2023-04-18T18:35:18.043Z,8.73
2023-04-18T18:37:45.044Z,8.18
2023-04-18T18:40:12.259Z,9.15
2023-04-18T18:42:39.623Z,10.98
2023-04-18T18:45:07.556Z,8.77
2023-04-18T18:47:35.155Z,11.25
2023-04-18T18:50:02.656Z,10.25
2023-04-18T18:52:30.824Z,8.98
2023-04-18T18:54:57.855Z,9.40
2023-04-18T18:57:25.049Z,13.95
2023-04-18T18:59:52.959Z,11.07
2023-04-18T19:02:21.423Z,9.73
2023-04-18T19:04:48.681Z,8.60
2023-04-18T19:07:15.931Z,11.07
2023-04-18T19:09:42.725Z,9.27
2023-04-18T19:12:10.022Z,10.35
2023-04-18T19:14:36.857Z,11.88
2023-04-18T19:17:04.852Z,10.80
2023-04-18T19:19:31.674Z,10.48
2023-04-18T19:22:01.104Z,13.23
2023-04-18T19:24:28.048Z,12.82
2023-04-18T19:26:54.850Z,15.23
2023-04-18T19:29:22.268Z,10.27
2023-04-18T19:31:49.243Z,10.18
2023-04-18T19:34:18.816Z,11.07
2023-04-18T19:36:45.864Z,12.43
2023-04-18T19:39:12.896Z,12.07
2023-04-18T19:41:41.620Z,12.47
2023-04-18T19:44:08.837Z,12.57
2023-04-18T19:46:35.890Z,13.73
2023-04-18T19:49:02.989Z,14.07
2023-04-18T19:51:30.139Z,12.70
2023-04-18T19:53:57.684Z,14.77
2023-04-18T19:56:24.574Z,12.23
2023-04-18T19:58:51.473Z,12.80
2023-04-18T20:01:20.153Z,9.32
2023-04-18T20:03:48.185Z,10.43
2023-04-18T20:06:16.136Z,9.20
2023-04-18T20:08:43.193Z,9.48
2023-04-18T20:11:11.359Z,10.10
2023-04-18T20:13:38.591Z,8.63
2023-04-18T20:16:07.457Z,9.33
2023-04-18T20:18:35.904Z,8.38
2023-04-18T20:21:03.626Z,7.93
2023-04-18T20:23:30.429Z,9.90
2023-04-18T20:25:57.306Z,9.07
2023-04-18T20:28:24.297Z,8.38
2023-04-18T20:30:51.228Z,8.35
2023-04-18T20:33:18.312Z,6.55
2023-04-18T20:35:46.918Z,7.95
2023-04-18T20:38:14.712Z,8.38
2023-04-18T20:40:45.018Z,7.30
2023-04-18T20:43:13.614Z,7.97
2023-04-18T20:45:42.907Z,9.20
2023-04-18T20:48:10.540Z,8.27
2023-04-18T20:50:39.975Z,10.43
2023-04-18T20:53:06.884Z,10.07
2023-04-18T20:55:33.873Z,10.40
2023-04-18T20:58:00.717Z,8.20
2023-04-18T21:00:28.512Z,9.27
2023-04-18T21:02:55.603Z,8.83
2023-04-18T21:05:22.715Z,8.18
2023-04-18T21:07:49.774Z,8.27
2023-04-18T21:10:16.663Z,10.32
2023-04-18T21:12:43.515Z,11.70
2023-04-18T21:15:10.853Z,8.57
2023-04-18T21:17:37.721Z,9.70
2023-04-18T21:20:04.998Z,10.20
2023-04-18T21:22:31.887Z,10.07
2023-04-18T21:24:58.740Z,9.07
2023-04-18T21:27:25.834Z,9.40
2023-04-18T21:29:52.641Z,10.30
2023-04-18T21:32:19.449Z,7.90
2023-04-18T21:34:46.292Z,9.77
2023-04-18T21:37:13.178Z,9.15
2023-04-18T21:39:40.099Z,10.83
2023-04-18T21:42:06.958Z,9.93
2023-04-18T21:44:33.856Z,10.18
2023-04-18T21:47:00.689Z,9.50
2023-04-18T21:49:27.690Z,9.25
2023-04-18T21:51:55.012Z,8.90
2023-04-18T21:54:21.884Z,9.10
2023-04-18T21:56:48.882Z,9.15
2023-04-18T21:59:15.945Z,10.50
2023-04-18T22:01:43.341Z,8.63
2023-04-18T22:04:12.433Z,7.93
2023-04-18T22:06:39.588Z,10.95
2023-04-18T22:09:06.599Z,8.77
2023-04-18T22:11:33.504Z,10.40
2023-04-18T22:14:00.490Z,8.27
2023-04-18T22:16:28.777Z,9.23
2023-04-18T22:18:55.919Z,9.73
2023-04-18T22:21:22.752Z,9.63
2023-04-18T22:23:49.548Z,9.90
2023-04-18T22:26:16.331Z,10.35
2023-04-18T22:28:43.285Z,8.65
2023-04-18T22:31:10.253Z,10.37
2023-04-18T22:33:37.266Z,9.73
2023-04-18T22:36:04.336Z,9.77
2023-04-18T22:38:31.118Z,7.57
2023-04-18T22:40:59.775Z,8.85
2023-04-18T22:43:26.913Z,10.47
2023-04-18T22:45:53.843Z,9.60
2023-04-18T22:48:20.623Z,8.23
2023-04-18T22:50:47.624Z,9.45
2023-04-18T22:53:15.054Z,8.30
2023-04-18T22:55:43.653Z,9.93
2023-04-18T22:58:11.330Z,11.95
2023-04-18T23:00:38.215Z,9.77
2023-04-18T23:03:05.406Z,9.27
2023-04-18T23:05:33.317Z,8.23
2023-04-18T23:08:00.715Z,10.13
2023-04-18T23:10:27.771Z,8.52
2023-04-18T23:12:54.715Z,9.60
2023-04-18T23:15:22.923Z,12.35
2023-04-18T23:17:53.138Z,11.35
2023-04-18T23:20:21.014Z,8.60
2023-04-18T23:22:51.575Z,10.32
2023-04-18T23:25:19.911Z,9.40
2023-04-18T23:27:47.188Z,9.02
2023-04-18T23:30:14.314Z,9.85
2023-04-18T23:32:41.143Z,9.90
2023-04-18T23:35:08.343Z,9.77
2023-04-18T23:37:35.233Z,10.27
2023-04-18T23:40:02.721Z,8.40
2023-04-18T23:42:29.584Z,9.40
2023-04-18T23:44:57.740Z,11.77
2023-04-18T23:47:24.535Z,10.52
2023-04-18T23:49:51.384Z,11.02
2023-04-18T23:52:18.475Z,8.27
2023-04-18T23:54:45.338Z,9.93
2023-04-18T23:57:12.215Z,12.05
2023-04-18T23:59:39.030Z,10.07
